Harrisburg, New York
Current Conditions -  °F | °C
As of 10:58 PM on Wednesday 22 Oct 2014 (Local Time) from KGTB Reporting Station
Scattered Clouds Scattered Clouds  
Wind Chill:   Ceiling: Unl
Heat Index:   Visibility: 10mi
Dew Point:   Wind: 18mph
Humidity: 65%   Direction: 50°NE
Pressure: 30.12"   Gusts: NA
Location:  43.7565°N, 75.5938°W
Report Text: KGTB 230258Z AUTO 05016KT 10SM SCT070 SCT170 08/02 A3012 RMK AO2 SLP204 T00810018 57016
Loading
Personal Weather Stations






























Interactive Weather Map
Tropical Storm Tracking
New forecast layout! Learn more

10-Day Weather Forecast

Advertisements
Track Severe Weather on mobile